createdAt,value
2017-07-29T00:00:32.078Z,0
2017-07-29T00:01:32.070Z,0
2017-07-29T00:02:31.740Z,0
2017-07-29T00:03:32.040Z,0
2017-07-29T00:04:32.023Z,0
2017-07-29T00:05:32.020Z,0
2017-07-29T00:06:31.720Z,0
2017-07-29T00:07:31.999Z,0
2017-07-29T00:08:32.300Z,0
2017-07-29T00:09:32.294Z,0
2017-07-29T00:10:31.966Z,0
2017-07-29T00:11:31.657Z,0
2017-07-29T00:12:32.143Z,0
2017-07-29T00:13:31.308Z,0
2017-07-29T00:14:32.230Z,0
2017-07-29T00:15:31.926Z,0
2017-07-29T00:16:32.246Z,0
2017-07-29T00:17:31.891Z,0
2017-07-29T00:18:31.882Z,0
2017-07-29T00:19:32.178Z,0
2017-07-29T00:20:31.860Z,0
2017-07-29T00:21:31.845Z,0
2017-07-29T00:22:31.827Z,0
2017-07-29T00:23:31.816Z,0
2017-07-29T00:24:32.121Z,0
2017-07-29T00:25:31.799Z,0
2017-07-29T00:26:31.848Z,0
2017-07-29T00:27:31.148Z,0
2017-07-29T00:28:31.761Z,0
2017-07-29T00:29:31.753Z,0
2017-07-29T00:30:31.744Z,0
2017-07-29T00:31:31.420Z,0
2017-07-29T00:32:31.409Z,0
2017-07-29T00:33:31.711Z,0
2017-07-29T00:34:31.385Z,0
2017-07-29T00:35:31.059Z,0
2017-07-29T00:36:31.986Z,0
2017-07-29T00:37:31.351Z,0
2017-07-29T00:38:31.350Z,0
2017-07-29T00:39:31.642Z,0
2017-07-29T00:40:31.630Z,0
2017-07-29T00:41:31.306Z,0
2017-07-29T00:42:31.300Z,0
2017-07-29T00:43:31.920Z,0
2017-07-29T00:44:31.980Z,0
2017-07-29T00:45:31.583Z,0
2017-07-29T00:46:31.573Z,0
2017-07-29T00:47:30.926Z,0
2017-07-29T00:48:31.859Z,0
2017-07-29T00:49:31.229Z,0
2017-07-29T00:50:31.844Z,0
2017-07-29T00:51:31.203Z,0
2017-07-29T00:52:31.836Z,0
2017-07-29T00:53:31.497Z,0
2017-07-29T00:54:31.162Z,0
2017-07-29T00:55:31.464Z,0
2017-07-29T00:56:31.765Z,0
2017-07-29T00:57:31.445Z,0
2017-07-29T00:58:31.433Z,0
2017-07-29T00:59:31.418Z,0
2017-07-29T01:00:31.420Z,0
2017-07-29T01:01:31.722Z,0
2017-07-29T01:02:31.076Z,0
2017-07-29T01:03:31.066Z,0
2017-07-29T01:04:31.369Z,0
2017-07-29T01:05:31.675Z,0
2017-07-29T01:06:31.033Z,0
2017-07-29T01:07:31.655Z,0
2017-07-29T01:08:31.321Z,0
2017-07-29T01:09:31.315Z,0
2017-07-29T01:10:31.302Z,0
2017-07-29T01:11:30.977Z,0
2017-07-29T01:12:31.283Z,0
2017-07-29T01:13:31.580Z,0
2017-07-29T01:14:31.259Z,0
2017-07-29T01:15:31.568Z,0
2017-07-29T01:16:31.231Z,0
2017-07-29T01:17:31.010Z,0
2017-07-29T01:18:31.213Z,0
2017-07-29T01:19:31.222Z,0
2017-07-29T01:20:30.875Z,0
2017-07-29T01:21:31.183Z,0
2017-07-29T01:22:30.859Z,0
2017-07-29T01:23:30.861Z,0
2017-07-29T01:24:31.462Z,0
2017-07-29T01:25:31.160Z,0
2017-07-29T01:26:31.128Z,0
2017-07-29T01:27:31.131Z,0
2017-07-29T01:28:30.801Z,0
2017-07-29T01:29:30.791Z,0
2017-07-29T01:30:31.084Z,0
2017-07-29T01:31:30.761Z,0
2017-07-29T01:32:31.065Z,0
2017-07-29T01:33:31.367Z,0
2017-07-29T01:34:30.734Z,0
2017-07-29T01:35:30.725Z,0
2017-07-29T01:36:31.030Z,0
2017-07-29T01:37:30.715Z,0
2017-07-29T01:38:31.003Z,0
2017-07-29T01:39:30.984Z,0
2017-07-29T01:40:30.664Z,0
2017-07-29T01:41:30.967Z,0
2017-07-29T01:42:30.648Z,0
2017-07-29T01:43:31.261Z,0
2017-07-29T01:44:30.934Z,0
2017-07-29T01:45:30.975Z,0
2017-07-29T01:46:30.915Z,0
2017-07-29T01:47:30.898Z,0
2017-07-29T01:48:30.888Z,0
2017-07-29T01:49:30.879Z,0
2017-07-29T01:50:30.917Z,0
2017-07-29T01:51:30.545Z,0
2017-07-29T01:52:30.847Z,0
2017-07-29T01:53:30.527Z,0
2017-07-29T01:54:31.140Z,0
2017-07-29T01:55:30.810Z,0
2017-07-29T01:56:30.810Z,0
2017-07-29T01:57:30.790Z,0
2017-07-29T01:58:30.464Z,0
2017-07-29T01:59:30.769Z,0
2017-07-29T02:00:30.761Z,0
2017-07-29T02:01:31.067Z,0
2017-07-29T02:02:30.738Z,0
2017-07-29T02:03:30.436Z,0
2017-07-29T02:04:30.088Z,0
2017-07-29T02:05:31.019Z,0
2017-07-29T02:06:30.384Z,0
2017-07-29T02:07:30.683Z,0
2017-07-29T02:08:30.679Z,0
2017-07-29T02:09:30.664Z,0
2017-07-29T02:10:30.652Z,0
2017-07-29T02:11:30.338Z,0
2017-07-29T02:12:30.312Z,0
2017-07-29T02:13:30.932Z,0
2017-07-29T02:14:29.998Z,0
2017-07-29T02:15:29.975Z,0
2017-07-29T02:16:30.900Z,0
2017-07-29T02:17:30.907Z,0
2017-07-29T02:18:30.877Z,0
2017-07-29T02:19:30.235Z,0
2017-07-29T02:20:30.543Z,0
2017-07-29T02:21:30.579Z,0
2017-07-29T02:22:30.208Z,0
2017-07-29T02:23:30.513Z,0
2017-07-29T02:24:30.498Z,0
2017-07-29T02:25:30.175Z,0
2017-07-29T02:26:30.217Z,0
2017-07-29T02:27:29.832Z,0
2017-07-29T02:28:30.460Z,0
2017-07-29T02:29:30.130Z,0
2017-07-29T02:30:30.431Z,0
2017-07-29T02:31:30.108Z,0
2017-07-29T02:32:30.415Z,0
2017-07-29T02:33:30.443Z,0
2017-07-29T02:34:30.394Z,0
2017-07-29T02:35:29.766Z,0
2017-07-29T02:36:30.369Z,0
2017-07-29T02:37:30.047Z,0
2017-07-29T02:38:30.035Z,0
2017-07-29T02:39:30.647Z,0
2017-07-29T02:40:30.029Z,0
2017-07-29T02:41:30.004Z,0
2017-07-29T02:42:29.991Z,0
2017-07-29T02:43:29.973Z,0
2017-07-29T02:44:30.015Z,0
2017-07-29T02:45:29.965Z,0
2017-07-29T02:46:30.254Z,0
2017-07-29T02:47:29.936Z,0
2017-07-29T02:48:29.618Z,0
2017-07-29T02:49:29.916Z,0
2017-07-29T02:50:30.215Z,0
2017-07-29T02:51:30.242Z,0
2017-07-29T02:52:29.890Z,0
2017-07-29T02:53:30.186Z,0
2017-07-29T02:54:29.882Z,0
2017-07-29T02:55:29.843Z,0
2017-07-29T02:56:30.172Z,0
2017-07-29T02:57:29.830Z,0
2017-07-29T02:58:30.131Z,0
2017-07-29T02:59:30.128Z,0
2017-07-29T03:00:29.503Z,0
2017-07-29T03:01:29.791Z,0
2017-07-29T03:02:30.395Z,0
2017-07-29T03:03:30.385Z,0
2017-07-29T03:04:29.757Z,0
2017-07-29T03:05:30.364Z,0
2017-07-29T03:06:29.723Z,0
2017-07-29T03:07:30.025Z,0
2017-07-29T03:08:30.011Z,0
2017-07-29T03:09:30.319Z,0
2017-07-29T03:10:30.314Z,0
2017-07-29T03:11:30.294Z,0
2017-07-29T03:12:29.661Z,0
2017-07-29T03:13:29.651Z,0
2017-07-29T03:14:29.959Z,0
2017-07-29T03:15:30.252Z,0
2017-07-29T03:16:29.940Z,0
2017-07-29T03:17:29.919Z,0
2017-07-29T03:18:30.225Z,0
2017-07-29T03:19:29.895Z,0
2017-07-29T03:20:30.215Z,4
2017-07-29T03:21:29.879Z,4
2017-07-29T03:22:29.866Z,4
2017-07-29T03:23:29.861Z,4
2017-07-29T03:24:29.853Z,4
2017-07-29T03:25:29.829Z,4
2017-07-29T03:26:29.822Z,4
2017-07-29T03:27:29.505Z,4
2017-07-29T03:28:29.487Z,8
2017-07-29T03:29:30.099Z,8
2017-07-29T03:30:29.478Z,8
2017-07-29T03:31:30.083Z,12
2017-07-29T03:32:29.761Z,12
2017-07-29T03:33:29.756Z,8
2017-07-29T03:34:30.061Z,12
2017-07-29T03:35:30.060Z,12
2017-07-29T03:36:30.025Z,16
2017-07-29T03:37:29.087Z,16
2017-07-29T03:38:29.395Z,16
2017-07-29T03:39:29.573Z,16
2017-07-29T03:40:29.356Z,20
2017-07-29T03:41:29.405Z,24
2017-07-29T03:42:29.971Z,28
2017-07-29T03:43:30.007Z,32
2017-07-29T03:44:29.944Z,32
2017-07-29T03:45:29.941Z,32
2017-07-29T03:46:28.982Z,36
2017-07-29T03:47:29.912Z,36
2017-07-29T03:48:29.586Z,36
2017-07-29T03:49:29.896Z,40
2017-07-29T03:50:29.882Z,44
2017-07-29T03:51:29.556Z,48
2017-07-29T03:52:29.231Z,56
2017-07-29T03:53:29.534Z,64
2017-07-29T03:54:29.213Z,68
2017-07-29T03:55:29.821Z,68
2017-07-29T03:56:29.201Z,68
2017-07-29T03:57:29.179Z,72
2017-07-29T03:58:29.485Z,80
2017-07-29T03:59:29.785Z,96
2017-07-29T04:00:29.147Z,108
2017-07-29T04:01:29.445Z,112
2017-07-29T04:02:29.442Z,112
2017-07-29T04:03:29.747Z,104
2017-07-29T04:04:29.728Z,112
2017-07-29T04:05:29.720Z,136
2017-07-29T04:06:29.715Z,160
2017-07-29T04:07:29.395Z,172
2017-07-29T04:08:29.065Z,180
2017-07-29T04:09:29.051Z,192
2017-07-29T04:10:29.053Z,188
2017-07-29T04:11:29.349Z,172
2017-07-29T04:12:29.038Z,148
2017-07-29T04:13:29.321Z,140
2017-07-29T04:14:29.004Z,148
2017-07-29T04:15:29.306Z,164
2017-07-29T04:16:29.294Z,204
2017-07-29T04:17:29.600Z,264
2017-07-29T04:18:28.645Z,308
2017-07-29T04:19:29.312Z,320
2017-07-29T04:20:29.560Z,324
2017-07-29T04:21:29.243Z,340
2017-07-29T04:22:28.966Z,360
2017-07-29T04:23:28.911Z,368
2017-07-29T04:24:29.530Z,380
2017-07-29T04:25:29.197Z,388
2017-07-29T04:26:28.875Z,368
2017-07-29T04:27:29.175Z,348
2017-07-29T04:28:28.855Z,368
2017-07-29T04:29:29.195Z,388
2017-07-29T04:30:28.837Z,388
2017-07-29T04:31:29.127Z,384
2017-07-29T04:32:29.495Z,384
2017-07-29T04:33:28.797Z,376
2017-07-29T04:34:28.478Z,424
2017-07-29T04:35:29.402Z,496
2017-07-29T04:36:29.084Z,548
2017-07-29T04:37:28.442Z,572
2017-07-29T04:38:28.747Z,572
2017-07-29T04:39:29.365Z,540
2017-07-29T04:40:28.736Z,500
2017-07-29T04:41:29.373Z,460
2017-07-29T04:42:28.394Z,444
2017-07-29T04:43:28.719Z,488
2017-07-29T04:44:29.326Z,608
2017-07-29T04:45:29.300Z,748
2017-07-29T04:46:28.993Z,860
2017-07-29T04:47:29.285Z,916
2017-07-29T04:48:28.968Z,924
2017-07-29T04:49:28.651Z,916
2017-07-29T04:50:29.275Z,908
2017-07-29T04:51:28.933Z,884
2017-07-29T04:52:28.927Z,848
2017-07-29T04:53:29.238Z,820
2017-07-29T04:54:28.610Z,840
2017-07-29T04:55:29.201Z,916
2017-07-29T04:56:28.895Z,936
2017-07-29T04:57:28.866Z,928
2017-07-29T04:58:28.863Z,936
2017-07-29T04:59:28.850Z,972
2017-07-29T05:00:28.216Z,1004
2017-07-29T05:01:28.830Z,1016
2017-07-29T05:02:28.507Z,1032
2017-07-29T05:03:28.521Z,1092
2017-07-29T05:04:28.485Z,1140
2017-07-29T05:05:28.791Z,1240
2017-07-29T05:06:28.460Z,1360
2017-07-29T05:07:28.759Z,1420
2017-07-29T05:08:28.447Z,1412
2017-07-29T05:09:28.752Z,1376
2017-07-29T05:10:28.423Z,1348
2017-07-29T05:11:28.723Z,1352
2017-07-29T05:12:28.093Z,1404
2017-07-29T05:13:28.704Z,1516
2017-07-29T05:14:29.009Z,1740
2017-07-29T05:15:28.684Z,2020
2017-07-29T05:16:28.412Z,2324
2017-07-29T05:17:28.656Z,2476
2017-07-29T05:18:28.867Z,2592
2017-07-29T05:19:28.639Z,2792
2017-07-29T05:20:28.633Z,2984
2017-07-29T05:21:28.308Z,3028
2017-07-29T05:22:28.612Z,2876
2017-07-29T05:23:28.596Z,2664
2017-07-29T05:24:28.905Z,2408
2017-07-29T05:25:28.894Z,2320
2017-07-29T05:26:28.886Z,2296
2017-07-29T05:27:28.251Z,2280
2017-07-29T05:28:28.607Z,2216
2017-07-29T05:29:28.233Z,2148
2017-07-29T05:30:28.859Z,2044
2017-07-29T05:31:28.202Z,1888
2017-07-29T05:32:28.821Z,1836
2017-07-29T05:33:28.523Z,1996
2017-07-29T05:34:28.178Z,2352
2017-07-29T05:35:28.789Z,2704
2017-07-29T05:36:28.473Z,2856
2017-07-29T05:37:28.777Z,3104
2017-07-29T05:38:28.454Z,3292
2017-07-29T05:39:28.463Z,3412
2017-07-29T05:40:28.430Z,3436
2017-07-29T05:41:28.426Z,3232
2017-07-29T05:42:28.101Z,3112
2017-07-29T05:43:28.138Z,2948
2017-07-29T05:44:28.707Z,2940
2017-07-29T05:45:28.378Z,3272
2017-07-29T05:46:28.373Z,3660
2017-07-29T05:47:28.403Z,3836
2017-07-29T05:48:28.087Z,3500
2017-07-29T05:49:28.683Z,3360
2017-07-29T05:50:28.023Z,3168
2017-07-29T05:51:28.332Z,3064
2017-07-29T05:52:28.003Z,3088
2017-07-29T05:53:28.310Z,3080
2017-07-29T05:54:28.608Z,2960
2017-07-29T05:55:28.601Z,2828
2017-07-29T05:56:28.583Z,2792
2017-07-29T05:57:28.260Z,3012
2017-07-29T05:58:28.255Z,3216
2017-07-29T05:59:27.938Z,3272
2017-07-29T06:00:27.933Z,3448
2017-07-29T06:01:28.561Z,3720
2017-07-29T06:02:28.253Z,3640
2017-07-29T06:03:27.908Z,3360
2017-07-29T06:04:28.195Z,3416
2017-07-29T06:05:27.881Z,3200
2017-07-29T06:06:28.175Z,3156
2017-07-29T06:07:28.180Z,3080
2017-07-29T06:08:27.854Z,3084
2017-07-29T06:09:27.520Z,2668
2017-07-29T06:10:28.148Z,2444
2017-07-29T06:11:27.834Z,2788
2017-07-29T06:12:28.140Z,2828
2017-07-29T06:13:27.585Z,2548
2017-07-29T06:14:27.814Z,2272
2017-07-29T06:15:28.411Z,2300
2017-07-29T06:16:27.769Z,2400
2017-07-29T06:17:28.419Z,2536
2017-07-29T06:18:27.494Z,2664
2017-07-29T06:19:28.061Z,2800
2017-07-29T06:20:27.737Z,3028
2017-07-29T06:21:28.042Z,3216
2017-07-29T06:22:28.033Z,3724
2017-07-29T06:23:27.703Z,4668
2017-07-29T06:24:28.008Z,5332
2017-07-29T06:25:28.313Z,6008
2017-07-29T06:26:27.995Z,6300
2017-07-29T06:27:27.680Z,6184
2017-07-29T06:28:27.554Z,5632
2017-07-29T06:29:27.963Z,5308
2017-07-29T06:30:28.266Z,5132
2017-07-29T06:31:27.949Z,4932
2017-07-29T06:32:27.935Z,5084
2017-07-29T06:33:27.938Z,5028
2017-07-29T06:34:27.934Z,4952
2017-07-29T06:35:27.597Z,5232
2017-07-29T06:36:27.916Z,4912
2017-07-29T06:37:27.897Z,5044
2017-07-29T06:38:28.242Z,5128
2017-07-29T06:39:27.868Z,5392
2017-07-29T06:40:27.868Z,5564
2017-07-29T06:41:28.069Z,5416
2017-07-29T06:42:27.840Z,5620
2017-07-29T06:43:27.260Z,6276
2017-07-29T06:44:28.140Z,6620
2017-07-29T06:45:27.197Z,6520
2017-07-29T06:46:27.812Z,6112
2017-07-29T06:47:27.802Z,6288
2017-07-29T06:48:27.818Z,6600
2017-07-29T06:49:27.789Z,6108
2017-07-29T06:50:27.466Z,5372
2017-07-29T06:51:28.080Z,4836
2017-07-29T06:52:27.764Z,4736
2017-07-29T06:53:27.436Z,4532
2017-07-29T06:54:27.427Z,4212
2017-07-29T06:55:27.729Z,4212
2017-07-29T06:56:27.718Z,4636
2017-07-29T06:57:27.402Z,4896
2017-07-29T06:58:27.710Z,5828
2017-07-29T06:59:28.009Z,6604
2017-07-29T07:00:27.743Z,6224
2017-07-29T07:01:27.048Z,6160
2017-07-29T07:02:27.988Z,7100
2017-07-29T07:03:27.671Z,6360
2017-07-29T07:04:27.655Z,6240
2017-07-29T07:05:27.642Z,6280
2017-07-29T07:06:27.676Z,6924
2017-07-29T07:07:27.009Z,7392
2017-07-29T07:08:27.938Z,7460
2017-07-29T07:09:27.295Z,7176
2017-07-29T07:10:27.920Z,7824
2017-07-29T07:11:27.284Z,8804
2017-07-29T07:12:27.592Z,9452
2017-07-29T07:13:27.580Z,9264
2017-07-29T07:14:27.569Z,8372
2017-07-29T07:15:27.265Z,7412
2017-07-29T07:16:27.295Z,6532
2017-07-29T07:17:27.544Z,5964
2017-07-29T07:18:27.428Z,5920
2017-07-29T07:19:27.841Z,6632
2017-07-29T07:20:27.837Z,7584
2017-07-29T07:21:27.877Z,7408
2017-07-29T07:22:27.217Z,7412
2017-07-29T07:23:27.501Z,6852
2017-07-29T07:24:27.812Z,7048
2017-07-29T07:25:27.799Z,7320
2017-07-29T07:26:27.486Z,7212
2017-07-29T07:27:27.773Z,7020
2017-07-29T07:28:27.792Z,5952
2017-07-29T07:29:27.804Z,6388
2017-07-29T07:30:27.484Z,7160
2017-07-29T07:31:27.130Z,8204
2017-07-29T07:32:27.737Z,8184
2017-07-29T07:33:27.417Z,8008
2017-07-29T07:34:27.427Z,7724
2017-07-29T07:35:27.403Z,11532
2017-07-29T07:36:27.412Z,11492
2017-07-29T07:37:27.384Z,23456
2017-07-29T07:38:27.702Z,8068
2017-07-29T07:39:27.369Z,8136
2017-07-29T07:40:26.730Z,9572
2017-07-29T07:41:27.353Z,12556
2017-07-29T07:42:27.344Z,13312
2017-07-29T07:43:27.648Z,15828
2017-07-29T07:44:27.014Z,9664
2017-07-29T07:45:27.627Z,8468
2017-07-29T07:46:27.308Z,7312
2017-07-29T07:47:27.302Z,8136
2017-07-29T07:48:27.319Z,10236
2017-07-29T07:49:26.977Z,13464
2017-07-29T07:50:27.276Z,14124
2017-07-29T07:51:27.273Z,11912
2017-07-29T07:52:27.261Z,12832
2017-07-29T07:53:27.259Z,6892
2017-07-29T07:54:27.567Z,12424
2017-07-29T07:55:27.555Z,14016
2017-07-29T07:56:27.262Z,21984
2017-07-29T07:57:26.923Z,13920
2017-07-29T07:58:27.539Z,13464
2017-07-29T07:59:26.914Z,20640
2017-07-29T08:00:27.535Z,36064
2017-07-29T08:01:27.207Z,37344
2017-07-29T08:02:27.210Z,31104
2017-07-29T08:03:27.183Z,30528
2017-07-29T08:04:27.508Z,23616
2017-07-29T08:05:27.195Z,44896
2017-07-29T08:06:27.168Z,20832
2017-07-29T08:07:27.476Z,15428
2017-07-29T08:08:26.849Z,18528
2017-07-29T08:09:26.832Z,10304
2017-07-29T08:10:26.523Z,7516
2017-07-29T08:11:27.144Z,11460
2017-07-29T08:12:26.843Z,41984
2017-07-29T08:13:27.127Z,14604
2017-07-29T08:14:26.855Z,18816
2017-07-29T08:15:26.807Z,11072
2017-07-29T08:16:27.104Z,10764
2017-07-29T08:17:27.006Z,11960
2017-07-29T08:18:27.418Z,14660
2017-07-29T08:19:26.796Z,11588
2017-07-29T08:20:27.417Z,10064
2017-07-29T08:21:27.091Z,9768
2017-07-29T08:22:26.769Z,9828
2017-07-29T08:23:26.771Z,9892
2017-07-29T08:24:26.750Z,10204
2017-07-29T08:25:27.370Z,7656
2017-07-29T08:26:26.746Z,6108
2017-07-29T08:27:27.052Z,5820
2017-07-29T08:28:27.037Z,6384
2017-07-29T08:29:27.040Z,6376
2017-07-29T08:30:27.030Z,5144
2017-07-29T08:31:27.021Z,4612
2017-07-29T08:32:26.710Z,4684
2017-07-29T08:33:27.011Z,5576
2017-07-29T08:34:26.686Z,6032
2017-07-29T08:35:27.027Z,7372
2017-07-29T08:36:26.682Z,7608
2017-07-29T08:37:26.984Z,7832
2017-07-29T08:38:26.659Z,8396
2017-07-29T08:39:26.651Z,9772
2017-07-29T08:40:26.655Z,12348
2017-07-29T08:41:26.955Z,11452
2017-07-29T08:42:27.261Z,13456
2017-07-29T08:43:26.945Z,12284
2017-07-29T08:44:27.241Z,10184
2017-07-29T08:45:27.241Z,12092
2017-07-29T08:46:26.918Z,17376
2017-07-29T08:47:26.910Z,17696
2017-07-29T08:48:26.589Z,16096
2017-07-29T08:49:26.899Z,18400
2017-07-29T08:50:26.580Z,13468
2017-07-29T08:51:26.892Z,11280
2017-07-29T08:52:26.575Z,12768
2017-07-29T08:53:26.551Z,13484
2017-07-29T08:54:27.171Z,13840
2017-07-29T08:55:26.851Z,15328
2017-07-29T08:56:26.533Z,20256
2017-07-29T08:57:26.528Z,12868
2017-07-29T08:58:26.829Z,13772
2017-07-29T08:59:26.825Z,12536
2017-07-29T09:00:26.505Z,11172
2017-07-29T09:01:27.014Z,13112
2017-07-29T09:02:26.809Z,14852
2017-07-29T09:03:26.498Z,14916
2017-07-29T09:04:26.491Z,16512
2017-07-29T09:05:26.483Z,16672
2017-07-29T09:06:26.668Z,13892
2017-07-29T09:07:26.780Z,13296
2017-07-29T09:08:26.763Z,13892
2017-07-29T09:09:27.077Z,14720
2017-07-29T09:10:26.757Z,11772
2017-07-29T09:11:26.743Z,10536
2017-07-29T09:12:26.740Z,12020
2017-07-29T09:13:26.733Z,16992
2017-07-29T09:14:26.737Z,18304
2017-07-29T09:15:26.725Z,13508
2017-07-29T09:16:26.409Z,8656
2017-07-29T09:17:26.718Z,7116
2017-07-29T09:18:26.903Z,7100
2017-07-29T09:19:27.015Z,8492
2017-07-29T09:20:26.063Z,11136
2017-07-29T09:21:26.700Z,14856
2017-07-29T09:22:26.679Z,27424
2017-07-29T09:23:26.993Z,38816
2017-07-29T09:24:26.667Z,21024
2017-07-29T09:25:26.698Z,22528
2017-07-29T09:26:26.653Z,21376
2017-07-29T09:27:26.652Z,15468
2017-07-29T09:28:26.968Z,14192
2017-07-29T09:29:26.951Z,14024
2017-07-29T09:30:26.318Z,14916
2017-07-29T09:31:26.311Z,14668
2017-07-29T09:32:25.993Z,15644
2017-07-29T09:33:26.925Z,16896
2017-07-29T09:34:26.935Z,15264
2017-07-29T09:35:26.931Z,15776
2017-07-29T09:36:26.295Z,13912
2017-07-29T09:37:26.906Z,12484
2017-07-29T09:38:26.271Z,12752
2017-07-29T09:39:26.259Z,14452
2017-07-29T09:40:26.642Z,14752
2017-07-29T09:41:26.876Z,15940
2017-07-29T09:42:26.248Z,16864
2017-07-29T09:43:26.868Z,16332
2017-07-29T09:44:26.558Z,15148
2017-07-29T09:45:26.560Z,15524
2017-07-29T09:46:26.542Z,15716
2017-07-29T09:47:26.849Z,15988
2017-07-29T09:48:26.208Z,17248
2017-07-29T09:49:26.522Z,17920
2017-07-29T09:50:26.509Z,16344
2017-07-29T09:51:26.512Z,14048
2017-07-29T09:52:26.818Z,17184
2017-07-29T09:53:26.505Z,19520
2017-07-29T09:54:25.860Z,17088
2017-07-29T09:55:25.857Z,15564
2017-07-29T09:56:26.479Z,15644
2017-07-29T09:57:26.156Z,14460
2017-07-29T09:58:26.157Z,13920
2017-07-29T09:59:26.461Z,13488
2017-07-29T10:00:26.459Z,16448
2017-07-29T10:01:26.764Z,15956
2017-07-29T10:02:26.130Z,14364
2017-07-29T10:03:26.120Z,15540
2017-07-29T10:04:26.738Z,18272
2017-07-29T10:05:26.470Z,17440
2017-07-29T10:06:26.730Z,17600
2017-07-29T10:07:26.745Z,9472
2017-07-29T10:08:26.402Z,5668
2017-07-29T10:09:26.407Z,5196
2017-07-29T10:10:26.079Z,4756
2017-07-29T10:11:26.111Z,4532
2017-07-29T10:12:26.730Z,5100
2017-07-29T10:13:25.958Z,5040
2017-07-29T10:14:26.381Z,5200
2017-07-29T10:15:26.065Z,6432
2017-07-29T10:16:26.050Z,7976
2017-07-29T10:17:26.350Z,9696
2017-07-29T10:18:26.350Z,9276
2017-07-29T10:19:26.339Z,6620
2017-07-29T10:20:26.343Z,5260
2017-07-29T10:21:26.334Z,5368
2017-07-29T10:22:26.329Z,5244
2017-07-29T10:23:26.704Z,4068
2017-07-29T10:24:26.312Z,3592
2017-07-29T10:25:26.610Z,3576
2017-07-29T10:26:25.988Z,3156
2017-07-29T10:27:26.306Z,3180
2017-07-29T10:28:26.001Z,3576
2017-07-29T10:29:26.291Z,4380
2017-07-29T10:30:26.272Z,7288
2017-07-29T10:31:26.268Z,12664
2017-07-29T10:32:26.251Z,20384
2017-07-29T10:33:25.934Z,16060
2017-07-29T10:39:11.993Z,44320
2017-07-29T10:40:11.311Z,28160
2017-07-29T10:41:12.238Z,41184
2017-07-29T10:42:12.238Z,25632
2017-07-29T10:43:11.299Z,28704
2017-07-29T10:44:12.219Z,20448
2017-07-29T10:45:12.212Z,18944
2017-07-29T10:46:11.898Z,16192
2017-07-29T10:47:11.897Z,15528
2017-07-29T10:48:11.883Z,19200
2017-07-29T10:49:11.567Z,13188
2017-07-29T10:50:11.642Z,8520
2017-07-29T10:51:12.196Z,6308
2017-07-29T10:52:12.210Z,4992
2017-07-29T10:53:11.865Z,5172
2017-07-29T10:54:11.600Z,6152
2017-07-29T10:55:11.225Z,7012
2017-07-29T10:56:11.842Z,6820
2017-07-29T10:57:11.214Z,7848
2017-07-29T10:58:11.830Z,9708
2017-07-29T10:59:11.825Z,11096
2017-07-29T11:00:11.815Z,8740
2017-07-29T11:01:11.499Z,7660
2017-07-29T11:02:12.120Z,7824
2017-07-29T11:03:11.799Z,8644
2017-07-29T11:04:11.791Z,9124
2017-07-29T11:05:11.797Z,9292
2017-07-29T11:06:11.469Z,9264
2017-07-29T11:07:12.101Z,10344
2017-07-29T11:08:12.079Z,13272
2017-07-29T11:09:11.768Z,14060
2017-07-29T11:10:11.760Z,23360
2017-07-29T11:11:11.444Z,23648
2017-07-29T11:12:12.065Z,25632
2017-07-29T11:13:11.434Z,15504
2017-07-29T11:14:11.114Z,17120
2017-07-29T11:15:11.729Z,21984
2017-07-29T11:16:12.058Z,24192
2017-07-29T11:17:11.715Z,23328
2017-07-29T11:18:11.938Z,20576
2017-07-29T11:19:12.025Z,22816
2017-07-29T11:20:11.706Z,23808
2017-07-29T11:21:11.384Z,22816
2017-07-29T11:22:11.376Z,23520
2017-07-29T11:23:12.005Z,25472
2017-07-29T11:24:11.368Z,47136
2017-07-29T11:25:11.685Z,36736
2017-07-29T11:26:11.370Z,65856
2017-07-29T11:27:11.358Z,52992
2017-07-29T11:28:11.359Z,43104
2017-07-29T11:29:11.663Z,54080
2017-07-29T11:30:11.660Z,93472
2017-07-29T11:31:11.976Z,38432
2017-07-29T11:32:11.656Z,39840
2017-07-29T11:33:11.018Z,104544
2017-07-29T11:34:11.650Z,28096
2017-07-29T11:35:11.648Z,30848
2017-07-29T11:36:11.956Z,82592
2017-07-29T11:37:11.638Z,16012
2017-07-29T11:38:11.949Z,11260
2017-07-29T11:39:11.690Z,9584
2017-07-29T11:40:11.002Z,9636
2017-07-29T11:41:11.310Z,11936
2017-07-29T11:42:11.315Z,14924
2017-07-29T11:43:11.620Z,14236
2017-07-29T11:44:11.615Z,12140
2017-07-29T11:45:11.613Z,11864
2017-07-29T11:46:11.292Z,9524
2017-07-29T11:47:11.616Z,8504
2017-07-29T11:48:11.600Z,11448
2017-07-29T11:49:11.935Z,14848
2017-07-29T11:50:11.823Z,15548
2017-07-29T11:51:11.589Z,84000
2017-07-29T11:52:11.952Z,56992
2017-07-29T11:53:11.276Z,20640
2017-07-29T11:54:11.268Z,57088
2017-07-29T11:55:11.897Z,74752
2017-07-29T11:56:11.567Z,27296
2017-07-29T11:57:11.570Z,23840
2017-07-29T11:58:11.562Z,27392
2017-07-29T11:59:11.558Z,31808
2017-07-29T12:00:11.559Z,56800
2017-07-29T12:01:11.245Z,67488
2017-07-29T12:02:11.880Z,65504
2017-07-29T12:03:11.547Z,99136
2017-07-29T12:04:11.239Z,58336
2017-07-29T12:05:11.556Z,49824
2017-07-29T12:06:11.230Z,93216
2017-07-29T12:07:11.222Z,21344
2017-07-29T12:08:11.537Z,11240
2017-07-29T12:09:11.225Z,11552
2017-07-29T12:10:11.534Z,14552
2017-07-29T12:11:11.850Z,13312
2017-07-29T12:12:11.537Z,15532
2017-07-29T12:13:11.529Z,25728
2017-07-29T12:14:11.533Z,19424
2017-07-29T12:15:11.219Z,19520
2017-07-29T12:16:10.912Z,14020
2017-07-29T12:17:11.240Z,9944
2017-07-29T12:18:11.518Z,6684
2017-07-29T12:19:11.529Z,5604
2017-07-29T12:20:11.520Z,5320
2017-07-29T12:21:11.518Z,6484
2017-07-29T12:22:11.836Z,9220
2017-07-29T12:23:10.881Z,12064
2017-07-29T12:24:11.207Z,18272
2017-07-29T12:25:11.507Z,20448
2017-07-29T12:26:10.878Z,14948
2017-07-29T12:27:11.499Z,22432
2017-07-29T12:28:11.491Z,57504
2017-07-29T12:29:11.803Z,76480
2017-07-29T12:30:11.496Z,24224
2017-07-29T12:31:11.529Z,74912
2017-07-29T12:32:11.486Z,77568
2017-07-29T12:33:11.474Z,77856
2017-07-29T12:34:11.483Z,66624
2017-07-29T12:35:11.211Z,89888
2017-07-29T12:36:11.169Z,92512
2017-07-29T12:37:11.804Z,86080
2017-07-29T12:38:11.484Z,87904
2017-07-29T12:39:11.475Z,87520
2017-07-29T12:40:11.780Z,31008
2017-07-29T12:41:11.778Z,48992
2017-07-29T12:42:11.149Z,73984
2017-07-29T12:43:11.813Z,21088
2017-07-29T12:44:11.517Z,56448
2017-07-29T12:45:10.847Z,72448
2017-07-29T12:46:11.777Z,36640
2017-07-29T12:47:11.182Z,26016
2017-07-29T12:48:11.791Z,25344
2017-07-29T12:49:11.471Z,12764
2017-07-29T12:50:11.788Z,10908
2017-07-29T12:51:11.469Z,13336
2017-07-29T12:52:11.172Z,18912
2017-07-29T12:53:11.160Z,26016
2017-07-29T12:54:12.032Z,54016
2017-07-29T12:55:11.477Z,10076
2017-07-29T12:56:11.150Z,5856
2017-07-29T12:57:11.460Z,4300
2017-07-29T12:58:11.778Z,3948
2017-07-29T12:59:11.774Z,4692
2017-07-29T13:00:11.462Z,5656
2017-07-29T13:01:11.457Z,6188
2017-07-29T13:02:11.151Z,6096
2017-07-29T13:03:11.144Z,6784
2017-07-29T13:04:11.455Z,7680
2017-07-29T13:05:11.754Z,9512
2017-07-29T13:06:11.138Z,11036
2017-07-29T13:07:11.755Z,11460
2017-07-29T13:08:11.118Z,10840
2017-07-29T13:09:11.745Z,9972
2017-07-29T13:10:11.121Z,10204
2017-07-29T13:11:11.425Z,12212
2017-07-29T13:12:11.100Z,25248
2017-07-29T13:13:11.100Z,16528
2017-07-29T13:14:11.406Z,14952
2017-07-29T13:15:11.409Z,14176
2017-07-29T13:16:11.405Z,12004
2017-07-29T13:17:11.094Z,10492
2017-07-29T13:18:11.886Z,9512
2017-07-29T13:19:11.706Z,9392
2017-07-29T13:20:11.399Z,8944
2017-07-29T13:21:11.071Z,8344
2017-07-29T13:22:11.388Z,8220
2017-07-29T13:23:11.370Z,8440
2017-07-29T13:24:11.368Z,8696
2017-07-29T13:25:11.677Z,9496
2017-07-29T13:26:11.365Z,9752
2017-07-29T13:27:11.355Z,10172
2017-07-29T13:28:11.036Z,10556
2017-07-29T13:29:11.347Z,11220
2017-07-29T13:30:11.342Z,13768
2017-07-29T13:31:11.339Z,18336
2017-07-29T13:32:11.025Z,19968
2017-07-29T13:33:11.358Z,21536
2017-07-29T13:34:11.020Z,26560
2017-07-29T13:35:11.324Z,33760
2017-07-29T13:36:11.658Z,40672
2017-07-29T13:37:11.629Z,35040
2017-07-29T13:38:11.005Z,31008
2017-07-29T13:39:10.994Z,31264